Time;durP1;ratioP1;P1;durP2;ratioP2;P2;SDS_P1;SDS_P2;PMS_P1;PMS_P2;Temp;Humidity;BMP_temperature;BMP_pressure;BME280_temperature;BME280_humidity;BME280_pressure;Samples;Min_cycle;Max_cycle;Signal;HPM_P1;HPM_P2
2023/03/20 00:00:20;;;;;;;17.30;13.40;;;10.90;99.90;;;;;;5017037;28;20536;-81
2023/03/20 00:02:47;;;;;;;22.40;13.30;;;10.90;99.90;;;;;;5016320;28;20477;-81
2023/03/20 00:05:20;;;;;;;17.67;13.20;;;10.90;99.90;;;;;;4996413;28;20516;-82
2023/03/20 00:07:48;;;;;;;19.83;13.87;;;10.80;99.90;;;;;;4996762;28;20541;-81
2023/03/20 00:10:18;;;;;;;20.50;15.03;;;10.80;99.90;;;;;;5016757;28;20489;-82
2023/03/20 00:12:47;;;;;;;24.10;14.90;;;10.60;99.90;;;;;;5013219;28;20901;-80
2023/03/20 00:15:33;;;;;;;27.07;16.60;;;10.60;99.90;;;;;;5016205;28;20488;-81
2023/03/20 00:18:00;;;;;;;26.90;17.40;;;10.50;99.90;;;;;;5015782;28;20441;-81
2023/03/20 00:20:26;;;;;;;26.37;17.70;;;10.50;99.90;;;;;;5014146;28;20965;-81
2023/03/20 00:22:54;;;;;;;32.93;19.30;;;10.50;99.90;;;;;;5014422;28;20466;-81
2023/03/20 00:25:25;;;;;;;25.97;18.30;;;10.50;99.90;;;;;;5014805;28;20467;-80
2023/03/20 00:27:52;;;;;;;29.53;17.50;;;10.40;99.90;;;;;;5014615;28;20537;-81
2023/03/20 00:30:24;;;;;;;28.57;17.47;;;10.50;99.90;;;;;;5014481;28;20499;-81
2023/03/20 00:32:52;;;;;;;23.40;16.33;;;10.50;99.90;;;;;;5014072;28;20916;-81
2023/03/20 00:35:25;;;;;;;22.93;16.13;;;10.60;99.90;;;;;;5015291;28;20511;-81
2023/03/20 00:37:52;;;;;;;22.57;16.03;;;10.50;99.90;;;;;;5014932;28;20513;-81
2023/03/20 00:40:20;;;;;;;22.70;17.30;;;10.50;99.90;;;;;;5015227;28;20453;-81
2023/03/20 00:42:51;;;;;;;25.20;16.53;;;10.30;99.90;;;;;;5015021;28;20481;-82
2023/03/20 00:45:20;;;;;;;22.07;14.97;;;10.30;99.90;;;;;;5014723;28;20473;-82
2023/03/20 00:47:50;;;;;;;23.10;16.00;;;10.30;99.90;;;;;;5024049;28;20457;-82
2023/03/20 00:50:20;;;;;;;19.83;14.27;;;10.30;99.90;;;;;;5020374;28;20452;-83
2023/03/20 00:52:48;;;;;;;21.70;15.17;;;10.30;99.90;;;;;;5019641;28;20918;-83
2023/03/20 00:55:15;;;;;;;24.00;14.13;;;10.30;99.90;;;;;;5020618;28;20440;-83
2023/03/20 00:57:49;;;;;;;22.07;14.57;;;10.20;99.90;;;;;;5020871;28;20465;-82
2023/03/20 01:00:27;;;;;;;21.63;15.40;;;10.30;99.90;;;;;;5021012;28;20848;-82
2023/03/20 01:02:56;;;;;;;25.90;15.97;;;10.30;99.90;;;;;;5019282;28;21007;-81
2023/03/20 01:05:23;;;;;;;30.60;17.73;;;10.30;99.90;;;;;;5019184;28;20445;-82
2023/03/20 01:07:50;;;;;;;24.07;17.83;;;10.40;99.90;;;;;;5020228;28;20544;-82
2023/03/20 01:10:17;;;;;;;24.50;17.63;;;10.40;99.90;;;;;;5018816;28;20464;-83
2023/03/20 01:12:46;;;;;;;28.10;18.47;;;10.40;99.90;;;;;;5020639;28;20480;-81
2023/03/20 01:15:19;;;;;;;24.67;16.70;;;10.50;99.90;;;;;;5023141;28;20472;-81
2023/03/20 01:17:47;;;;;;;26.83;17.40;;;10.40;99.90;;;;;;5019725;28;20449;-81
2023/03/20 01:20:21;;;;;;;28.10;18.40;;;10.40;99.90;;;;;;5020222;28;20458;-81
2023/03/20 01:22:48;;;;;;;20.90;15.30;;;10.50;99.90;;;;;;5020034;28;20477;-81
2023/03/20 01:25:16;;;;;;;20.70;14.80;;;10.50;99.90;;;;;;5020482;28;20464;-80
2023/03/20 01:27:44;;;;;;;22.47;15.73;;;10.50;99.90;;;;;;5022720;28;20543;-81
2023/03/20 01:30:20;;;;;;;24.27;16.03;;;10.30;99.90;;;;;;5020278;28;20468;-80
2023/03/20 01:32:47;;;;;;;24.93;16.13;;;10.30;99.90;;;;;;5019328;28;20484;-80
2023/03/20 01:35:16;;;;;;;22.53;14.30;;;10.30;99.90;;;;;;5019328;28;20459;-81
2023/03/20 01:37:43;;;;;;;26.23;14.80;;;10.20;99.90;;;;;;5019629;28;20975;-81
2023/03/20 01:40:19;;;;;;;21.00;14.73;;;10.20;99.90;;;;;;5018735;28;20454;-81
2023/03/20 01:42:46;;;;;;;19.23;14.77;;;10.20;99.90;;;;;;5017053;28;20891;-81
2023/03/20 01:45:19;;;;;;;16.07;12.40;;;10.20;99.90;;;;;;5018878;28;20535;-81
2023/03/20 01:47:47;;;;;;;18.90;13.70;;;10.10;99.90;;;;;;5018424;28;20830;-80
2023/03/20 01:50:27;;;;;;;21.27;12.97;;;10.20;99.90;;;;;;5018372;28;20463;-81
2023/03/20 01:53:01;;;;;;;19.70;14.60;;;10.30;99.90;;;;;;5017696;28;20996;-81
2023/03/20 01:55:29;;;;;;;18.80;14.13;;;10.20;99.90;;;;;;5019086;28;20450;-81
2023/03/20 01:57:59;;;;;;;19.03;13.60;;;10.10;99.90;;;;;;5018582;28;20519;-81
2023/03/20 02:00:27;;;;;;;20.50;14.00;;;10.10;99.90;;;;;;5018649;28;20844;-82
2023/03/20 02:02:55;;;;;;;18.20;12.20;;;10.00;99.90;;;;;;5018250;28;20476;-81
2023/03/20 02:05:23;;;;;;;24.93;15.37;;;9.90;99.90;;;;;;5018524;28;20450;-81
2023/03/20 02:07:57;;;;;;;21.57;14.03;;;10.00;99.90;;;;;;5018611;28;20459;-81
2023/03/20 02:10:24;;;;;;;23.53;12.23;;;10.00;99.90;;;;;;5020496;28;20462;-82
2023/03/20 02:12:52;;;;;;;21.80;13.50;;;10.00;99.90;;;;;;5015396;28;20559;-81
2023/03/20 02:15:19;;;;;;;20.90;12.23;;;9.80;99.90;;;;;;5018498;28;20493;-80
2023/03/20 02:17:47;;;;;;;24.97;11.90;;;9.90;99.90;;;;;;5018806;28;20519;-81
2023/03/20 02:20:31;;;;;;;15.73;11.57;;;9.80;99.90;;;;;;5020096;28;20456;-81
2023/03/20 02:23:24;;;;;;;20.30;12.73;;;9.70;99.90;;;;;;5019169;28;20508;-82
2023/03/20 02:26:31;;;;;;;16.50;10.83;;;9.70;99.90;;;;;;5018515;28;20465;-81
2023/03/20 02:29:37;;;;;;;18.03;10.80;;;9.60;99.90;;;;;;4982244;28;21271;-81
2023/03/20 02:32:44;;;;;;;22.43;10.70;;;9.60;99.90;;;;;;5017222;28;20457;-81
2023/03/20 02:35:38;;;;;;;17.10;11.07;;;9.60;99.90;;;;;;5021901;28;20546;-82
2023/03/20 02:38:18;;;;;;;18.63;9.80;;;9.60;99.90;;;;;;4997574;28;20461;-83
2023/03/20 02:40:53;;;;;;;12.57;8.90;;;9.60;99.90;;;;;;5025247;28;20428;-82
2023/03/20 02:43:25;;;;;;;12.60;7.50;;;9.50;99.90;;;;;;5025004;28;20496;-82
2023/03/20 02:45:59;;;;;;;15.70;6.87;;;9.50;99.90;;;;;;5024675;28;20444;-81
2023/03/20 02:48:38;;;;;;;11.33;6.90;;;9.50;99.90;;;;;;5024410;28;20886;-81
2023/03/20 02:51:12;;;;;;;8.47;5.57;;;9.50;99.90;;;;;;5003353;28;20515;-81
2023/03/20 02:53:51;;;;;;;10.00;6.80;;;9.50;99.90;;;;;;5003018;28;20490;-80
2023/03/20 02:56:24;;;;;;;9.40;5.47;;;9.50;99.90;;;;;;4999973;28;20485;-81
2023/03/20 02:58:57;;;;;;;10.37;5.60;;;9.60;99.90;;;;;;4999022;28;21024;-81
2023/03/20 03:01:32;;;;;;;7.70;5.00;;;9.40;99.90;;;;;;5002649;28;20967;-81
2023/03/20 03:04:03;;;;;;;7.60;5.53;;;9.40;99.90;;;;;;5016385;28;21011;-80
2023/03/20 03:06:32;;;;;;;6.93;4.70;;;9.50;99.90;;;;;;5016298;28;20491;-81
2023/03/20 03:09:04;;;;;;;6.20;4.80;;;9.50;99.90;;;;;;5016880;28;20456;-80
2023/03/20 03:11:35;;;;;;;5.57;4.60;;;9.50;99.90;;;;;;5016410;28;20455;-81
2023/03/20 03:14:04;;;;;;;7.13;4.23;;;9.40;99.90;;;;;;5015445;28;20474;-82
2023/03/20 03:16:33;;;;;;;6.97;4.60;;;9.50;99.90;;;;;;5015992;28;20461;-81
2023/03/20 03:19:07;;;;;;;4.83;3.90;;;9.60;99.90;;;;;;5016226;28;20460;-82
2023/03/20 03:21:36;;;;;;;7.50;4.00;;;9.60;99.90;;;;;;5016703;28;20455;-80
2023/03/20 03:24:05;;;;;;;5.20;4.07;;;9.60;99.90;;;;;;5015596;28;20573;-80
2023/03/20 03:26:37;;;;;;;5.47;4.43;;;9.60;99.90;;;;;;5016182;28;20546;-81
2023/03/20 03:29:11;;;;;;;6.77;3.57;;;9.60;99.90;;;;;;5015615;28;20540;-81
2023/03/20 03:31:38;;;;;;;13.53;3.77;;;9.60;99.90;;;;;;5016112;28;20810;-80
2023/03/20 03:34:05;;;;;;;7.03;3.23;;;9.70;99.90;;;;;;5014492;28;20561;-81
2023/03/20 03:36:44;;;;;;;5.93;3.70;;;9.70;99.90;;;;;;5015307;28;20462;-80
2023/03/20 03:39:21;;;;;;;4.47;2.60;;;9.60;99.90;;;;;;5015142;28;20447;-81
2023/03/20 03:41:52;;;;;;;4.00;2.97;;;9.40;99.90;;;;;;5015004;28;20832;-79
2023/03/20 03:44:26;;;;;;;5.30;3.13;;;9.40;99.90;;;;;;5014961;28;20957;-82
2023/03/20 03:46:56;;;;;;;5.23;3.23;;;9.20;99.90;;;;;;5015247;28;20443;-81
2023/03/20 03:49:27;;;;;;;4.77;3.30;;;9.20;99.90;;;;;;5014296;28;20456;-82
2023/03/20 03:52:00;;;;;;;5.20;3.30;;;9.30;99.90;;;;;;5014561;28;20554;-81
2023/03/20 03:54:32;;;;;;;5.50;3.13;;;9.10;99.90;;;;;;5014726;28;20486;-80
2023/03/20 03:57:01;;;;;;;4.77;3.37;;;9.00;99.90;;;;;;5015119;28;20453;-80
2023/03/20 03:59:33;;;;;;;3.77;2.93;;;9.10;99.90;;;;;;5014112;28;20455;-81
2023/03/20 04:02:02;;;;;;;4.57;3.23;;;9.10;99.90;;;;;;5013786;28;20466;-80
2023/03/20 04:04:31;;;;;;;6.53;3.97;;;9.10;99.90;;;;;;5014384;28;20484;-80
2023/03/20 04:06:58;;;;;;;6.03;3.70;;;9.10;99.90;;;;;;5014812;28;20480;-82
2023/03/20 04:09:25;;;;;;;7.27;3.90;;;9.30;99.90;;;;;;5014049;28;20483;-81
2023/03/20 04:11:54;;;;;;;5.90;3.30;;;9.30;99.90;;;;;;5014144;28;20483;-81
2023/03/20 04:14:21;;;;;;;5.43;3.63;;;9.30;99.90;;;;;;5014170;28;20548;-81
2023/03/20 04:16:48;;;;;;;7.80;4.03;;;9.40;99.90;;;;;;5014664;28;20452;-81
2023/03/20 04:19:14;;;;;;;6.73;4.50;;;9.40;99.90;;;;;;5014383;28;20967;-81
2023/03/20 04:21:41;;;;;;;8.50;5.63;;;9.50;99.90;;;;;;5012767;28;20465;-81
2023/03/20 04:24:08;;;;;;;8.37;6.00;;;9.50;99.90;;;;;;5019848;28;20560;-82
2023/03/20 04:26:35;;;;;;;9.60;6.00;;;9.50;99.90;;;;;;5000216;28;20457;-81
2023/03/20 04:29:03;;;;;;;10.57;7.50;;;9.40;99.90;;;;;;5001052;28;20917;-81
2023/03/20 04:31:30;;;;;;;11.77;7.30;;;9.40;99.90;;;;;;5013076;28;20485;-80
2023/03/20 04:33:57;;;;;;;10.20;6.53;;;9.40;99.90;;;;;;5015105;28;20472;-80
2023/03/20 04:36:24;;;;;;;10.20;6.77;;;9.40;99.90;;;;;;5014290;28;20982;-81
2023/03/20 04:38:50;;;;;;;10.03;6.53;;;9.40;99.90;;;;;;5013919;28;20850;-80
2023/03/20 04:41:19;;;;;;;13.77;8.43;;;9.40;99.90;;;;;;5005747;28;20559;-80
2023/03/20 04:43:46;;;;;;;11.43;8.03;;;9.30;99.90;;;;;;4994001;28;20555;-82
2023/03/20 04:46:14;;;;;;;11.03;8.00;;;9.30;99.90;;;;;;5012641;28;20483;-81
2023/03/20 04:48:41;;;;;;;14.10;8.97;;;9.20;99.90;;;;;;5013831;28;20910;-81
2023/03/20 04:51:08;;;;;;;12.80;8.03;;;9.20;99.90;;;;;;5013219;28;20462;-82
2023/03/20 04:53:35;;;;;;;15.67;10.60;;;9.10;99.90;;;;;;5023759;23;20884;-83
2023/03/20 04:56:07;;;;;;;15.43;9.60;;;9.20;99.90;;;;;;4997600;28;20462;-84
2023/03/20 04:58:39;;;;;;;15.30;9.40;;;9.00;99.90;;;;;;4989257;28;20449;-83
2023/03/20 05:01:06;;;;;;;15.83;10.73;;;8.90;99.90;;;;;;4996669;28;20456;-84
2023/03/20 05:03:35;;;;;;;15.83;10.20;;;8.80;99.90;;;;;;4977744;28;20557;-83
2023/03/20 05:06:02;;;;;;;17.90;10.73;;;8.70;99.90;;;;;;4992390;28;20479;-85
2023/03/20 05:08:29;;;;;;;14.47;10.10;;;8.60;99.90;;;;;;4996738;28;20491;-84
2023/03/20 05:10:55;;;;;;;17.10;10.30;;;8.70;99.90;;;;;;4996891;28;20469;-83
2023/03/20 05:13:23;;;;;;;16.50;10.13;;;8.60;99.90;;;;;;4996470;28;20570;-82
2023/03/20 05:15:50;;;;;;;19.20;10.80;;;8.60;99.90;;;;;;4997351;28;20535;-84
2023/03/20 05:18:16;;;;;;;23.30;12.37;;;8.50;99.90;;;;;;4996899;28;20455;-84
2023/03/20 05:20:45;;;;;;;16.70;10.70;;;8.40;99.90;;;;;;4996510;28;20539;-84
2023/03/20 05:23:12;;;;;;;16.73;10.73;;;8.40;99.90;;;;;;4996473;28;20462;-83
2023/03/20 05:25:39;;;;;;;13.80;9.10;;;8.40;99.90;;;;;;4989550;28;20493;-84
2023/03/20 05:28:06;;;;;;;21.07;11.70;;;8.40;99.90;;;;;;4996440;28;20448;-83
2023/03/20 05:30:33;;;;;;;16.80;10.00;;;8.40;99.90;;;;;;4996224;28;20459;-83
2023/03/20 05:33:00;;;;;;;21.27;11.80;;;8.50;99.90;;;;;;4998051;28;20457;-81
2023/03/20 05:35:27;;;;;;;18.50;10.73;;;8.50;99.90;;;;;;4997437;28;20463;-81
2023/03/20 05:37:55;;;;;;;18.07;11.70;;;8.50;99.90;;;;;;4998594;28;20588;-82
2023/03/20 05:40:23;;;;;;;20.37;12.33;;;8.50;99.90;;;;;;5015608;28;20462;-81
2023/03/20 05:42:50;;;;;;;21.90;12.73;;;8.50;99.90;;;;;;5015946;28;20443;-80
2023/03/20 05:45:16;;;;;;;16.10;10.53;;;8.40;99.90;;;;;;5015597;28;20494;-82
2023/03/20 05:47:43;;;;;;;18.50;12.23;;;8.40;99.90;;;;;;5016292;28;20489;-81
2023/03/20 05:50:11;;;;;;;19.37;13.47;;;8.40;99.90;;;;;;5016285;28;20461;-84
2023/03/20 05:52:38;;;;;;;18.20;11.67;;;8.40;99.90;;;;;;5015516;28;20510;-83
2023/03/20 05:55:07;;;;;;;16.40;11.00;;;8.50;99.90;;;;;;5015696;28;20515;-87
2023/03/20 05:57:34;;;;;;;21.73;12.57;;;8.50;99.90;;;;;;5018799;28;20491;-83
2023/03/20 06:00:01;;;;;;;15.13;11.70;;;8.60;99.90;;;;;;5039098;28;20438;-83
2023/03/20 06:02:28;;;;;;;16.13;10.67;;;8.60;99.90;;;;;;5038709;28;20461;-85
2023/03/20 06:04:55;;;;;;;15.20;9.70;;;8.60;99.90;;;;;;5028253;28;20535;-85
2023/03/20 06:07:21;;;;;;;17.00;9.50;;;8.60;99.90;;;;;;4998922;28;20482;-82
2023/03/20 06:09:49;;;;;;;18.57;10.93;;;8.60;99.90;;;;;;5009166;28;20443;-81
2023/03/20 06:12:17;;;;;;;18.00;10.90;;;8.60;99.90;;;;;;5017181;28;20455;-81
2023/03/20 06:14:44;;;;;;;19.13;10.33;;;8.70;99.90;;;;;;5026840;28;20496;-83
2023/03/20 06:17:11;;;;;;;15.63;10.00;;;8.70;99.90;;;;;;5015789;28;20459;-80
2023/03/20 06:19:38;;;;;;;17.73;10.17;;;8.70;99.90;;;;;;5010414;28;20460;-82
2023/03/20 06:22:05;;;;;;;16.10;10.50;;;8.60;99.90;;;;;;4992106;28;20498;-82
2023/03/20 06:24:32;;;;;;;15.50;10.10;;;8.60;99.90;;;;;;4987483;28;20487;-81
2023/03/20 06:26:59;;;;;;;18.17;9.97;;;8.60;99.90;;;;;;5004994;28;20535;-80
2023/03/20 06:29:27;;;;;;;13.40;8.23;;;8.60;99.90;;;;;;5000016;28;20474;-81
2023/03/20 06:31:54;;;;;;;14.83;9.20;;;8.70;99.90;;;;;;4998669;28;20987;-81
2023/03/20 06:34:21;;;;;;;17.13;9.97;;;8.80;99.90;;;;;;4999882;28;20493;-83
2023/03/20 06:36:48;;;;;;;14.60;9.10;;;8.70;99.90;;;;;;5017380;28;20542;-81
2023/03/20 06:39:15;;;;;;;13.87;9.07;;;8.70;99.90;;;;;;5003463;28;20458;-83
2023/03/20 06:41:42;;;;;;;13.27;8.53;;;8.70;99.90;;;;;;4996233;28;20446;-81
2023/03/20 06:44:09;;;;;;;13.20;8.60;;;8.80;99.90;;;;;;4998014;28;20476;-82
2023/03/20 06:46:37;;;;;;;10.57;7.33;;;8.80;99.90;;;;;;4999061;28;20499;-80
2023/03/20 06:49:04;;;;;;;14.47;8.93;;;8.90;99.90;;;;;;4993531;28;20483;-82
2023/03/20 06:51:31;;;;;;;12.23;8.33;;;9.00;99.90;;;;;;4988773;28;20463;-81
2023/03/20 06:53:58;;;;;;;11.97;7.47;;;8.90;99.90;;;;;;5000081;28;20543;-81
2023/03/20 06:56:25;;;;;;;13.10;7.87;;;9.00;99.90;;;;;;5001741;28;20484;-83
2023/03/20 06:58:51;;;;;;;13.03;8.17;;;8.90;99.90;;;;;;4999207;28;20492;-83
2023/03/20 07:01:19;;;;;;;10.57;7.10;;;8.90;99.90;;;;;;4998034;28;20522;-83
2023/03/20 07:03:47;;;;;;;13.00;8.07;;;8.90;99.90;;;;;;4985442;28;20478;-83
2023/03/20 07:06:14;;;;;;;12.67;7.10;;;9.00;99.90;;;;;;4997316;28;21019;-82
2023/03/20 07:08:41;;;;;;;11.67;6.83;;;9.10;99.90;;;;;;4996175;28;20495;-83
2023/03/20 07:11:08;;;;;;;25.10;14.50;;;9.20;99.90;;;;;;4996783;28;20543;-81
2023/03/20 07:13:36;;;;;;;15.23;8.90;;;9.20;99.90;;;;;;4990543;28;20743;-82
2023/03/20 07:16:04;;;;;;;10.40;6.80;;;9.20;99.90;;;;;;5010735;28;20457;-82
2023/03/20 07:18:30;;;;;;;10.93;6.53;;;9.20;99.90;;;;;;5009021;28;20496;-83
2023/03/20 07:21:01;;;;;;;11.13;6.30;;;9.30;99.90;;;;;;5017808;28;20481;-81
2023/03/20 07:23:28;;;;;;;11.50;6.00;;;9.30;99.90;;;;;;5004035;28;21007;-82
2023/03/20 07:25:55;;;;;;;12.37;5.87;;;9.40;99.90;;;;;;5007542;28;20572;-82
2023/03/20 07:28:22;;;;;;;10.53;6.63;;;9.50;99.90;;;;;;5004897;28;20559;-82
2023/03/20 07:30:49;;;;;;;10.17;5.67;;;9.40;99.90;;;;;;4999975;28;21037;-83
2023/03/20 07:33:15;;;;;;;8.00;5.27;;;9.50;99.90;;;;;;4993591;28;20507;-84
2023/03/20 07:35:42;;;;;;;8.03;6.40;;;9.80;99.90;;;;;;5001365;28;20461;-81
2023/03/20 07:38:11;;;;;;;11.80;6.70;;;9.80;99.90;;;;;;4997430;28;20457;-82
2023/03/20 07:40:37;;;;;;;9.00;5.00;;;9.80;99.90;;;;;;4988391;28;20838;-82
2023/03/20 07:43:04;;;;;;;10.17;6.93;;;9.90;99.90;;;;;;5016704;28;20462;-82
2023/03/20 07:45:31;;;;;;;9.60;5.17;;;9.90;99.90;;;;;;5009374;28;21010;-85
2023/03/20 07:47:58;;;;;;;8.20;5.17;;;10.00;99.90;;;;;;4992388;28;20496;-83
2023/03/20 07:50:25;;;;;;;10.27;5.53;;;10.10;99.90;;;;;;5016756;28;20928;-82
2023/03/20 07:52:51;;;;;;;9.13;5.13;;;10.20;99.90;;;;;;5011928;28;20462;-83
2023/03/20 07:55:20;;;;;;;7.33;5.00;;;10.30;99.90;;;;;;4996951;28;20504;-84
2023/03/20 07:57:49;;;;;;;8.00;5.13;;;10.40;99.90;;;;;;4996432;28;20460;-82
2023/03/20 08:00:18;;;;;;;8.97;4.53;;;10.40;99.90;;;;;;4997363;28;20527;-83
2023/03/20 08:02:44;;;;;;;7.70;5.07;;;10.40;99.90;;;;;;4999799;28;20461;-83
2023/03/20 08:05:11;;;;;;;11.50;5.80;;;10.30;99.90;;;;;;5003429;28;20492;-83
2023/03/20 08:07:38;;;;;;;9.80;5.40;;;10.30;99.90;;;;;;5003550;28;20495;-85
2023/03/20 08:10:06;;;;;;;8.10;5.13;;;10.50;99.90;;;;;;4997876;28;20468;-84
2023/03/20 08:12:34;;;;;;;14.20;7.50;;;10.60;99.90;;;;;;4999008;28;20475;-84
2023/03/20 08:15:01;;;;;;;12.60;6.60;;;10.50;99.90;;;;;;5008520;28;20469;-83
2023/03/20 08:17:27;;;;;;;10.80;5.63;;;10.40;99.90;;;;;;5015568;28;20456;-85
2023/03/20 08:19:55;;;;;;;14.17;7.50;;;10.50;99.90;;;;;;4989934;28;20831;-83
2023/03/20 08:22:22;;;;;;;14.47;6.27;;;10.60;99.90;;;;;;4996716;28;20460;-82
2023/03/20 08:24:49;;;;;;;9.60;6.83;;;11.00;99.90;;;;;;4998890;28;20478;-84
2023/03/20 08:27:16;;;;;;;13.23;6.60;;;11.30;99.90;;;;;;5011409;28;20521;-82
2023/03/20 08:29:44;;;;;;;13.40;6.90;;;11.50;99.90;;;;;;4970770;28;20457;-83
2023/03/20 08:32:11;;;;;;;15.47;7.83;;;11.30;99.90;;;;;;5008409;28;20483;-83
2023/03/20 08:34:37;;;;;;;12.00;7.97;;;11.60;99.90;;;;;;5004522;28;20482;-84
2023/03/20 08:37:06;;;;;;;12.20;7.37;;;11.60;99.90;;;;;;5009546;28;20456;-83
2023/03/20 08:39:34;;;;;;;11.40;7.20;;;11.70;99.90;;;;;;5002158;28;20457;-84
2023/03/20 08:42:01;;;;;;;15.00;7.00;;;11.90;99.90;;;;;;4997340;28;20454;-83
2023/03/20 08:44:28;;;;;;;12.63;7.27;;;11.80;99.90;;;;;;4990364;28;20562;-85
2023/03/20 08:46:56;;;;;;;11.20;7.27;;;12.00;99.90;;;;;;4992566;28;20493;-83
2023/03/20 08:49:23;;;;;;;11.00;7.23;;;12.00;99.90;;;;;;4997542;28;20472;-82
2023/03/20 08:51:51;;;;;;;11.10;7.70;;;11.90;99.90;;;;;;4998346;28;20446;-83
2023/03/20 08:54:18;;;;;;;13.37;7.37;;;11.80;99.90;;;;;;4997416;28;20577;-84
2023/03/20 08:56:45;;;;;;;10.30;6.70;;;11.70;99.90;;;;;;4997462;28;20840;-81
2023/03/20 08:59:12;;;;;;;11.13;6.80;;;11.90;99.90;;;;;;5017697;28;20519;-82
2023/03/20 09:01:39;;;;;;;10.93;6.00;;;12.00;99.90;;;;;;5004416;28;20486;-83
2023/03/20 09:04:08;;;;;;;9.57;5.40;;;12.10;99.90;;;;;;4997221;28;20530;-83
2023/03/20 09:06:36;;;;;;;12.00;6.20;;;12.10;99.90;;;;;;5008649;28;20518;-82
2023/03/20 09:09:03;;;;;;;9.10;6.00;;;11.90;99.90;;;;;;5032029;28;20529;-81
2023/03/20 09:11:31;;;;;;;13.90;5.60;;;12.20;99.90;;;;;;5022958;28;20439;-81
2023/03/20 09:13:58;;;;;;;10.73;5.97;;;11.90;99.90;;;;;;5013532;28;20506;-83
2023/03/20 09:16:24;;;;;;;9.00;5.33;;;11.70;99.90;;;;;;5017392;28;20500;-81
2023/03/20 09:18:51;;;;;;;10.40;5.20;;;11.60;99.90;;;;;;5028829;28;20521;-83
2023/03/20 09:21:20;;;;;;;11.30;6.30;;;11.60;99.90;;;;;;4990172;28;20465;-83
2023/03/20 09:23:47;;;;;;;9.00;5.57;;;11.40;99.90;;;;;;5008365;28;20476;-82
2023/03/20 09:26:14;;;;;;;12.57;6.73;;;11.20;99.90;;;;;;5015770;28;20498;-83
2023/03/20 09:28:41;;;;;;;10.33;6.03;;;11.20;99.90;;;;;;5003157;28;20459;-82
2023/03/20 09:31:07;;;;;;;8.30;4.93;;;11.30;99.90;;;;;;4994748;28;20473;-82
2023/03/20 09:33:34;;;;;;;8.33;4.67;;;11.30;99.90;;;;;;5004573;28;20481;-83
2023/03/20 09:36:01;;;;;;;8.17;4.03;;;11.20;99.90;;;;;;5000503;28;20453;-82
2023/03/20 09:38:29;;;;;;;6.50;4.03;;;11.20;99.90;;;;;;5002741;28;20467;-81
2023/03/20 09:40:57;;;;;;;8.30;4.00;;;11.20;99.90;;;;;;5001747;28;20465;-80
2023/03/20 09:43:42;;;;;;;9.00;4.10;;;11.20;99.90;;;;;;5021201;28;20477;-81
2023/03/20 09:46:34;;;;;;;6.90;4.40;;;11.30;99.90;;;;;;5009095;28;20467;-79
2023/03/20 09:49:11;;;;;;;7.17;4.20;;;11.30;99.90;;;;;;5017325;28;20466;-79
2023/03/20 09:51:44;;;;;;;7.03;4.20;;;11.50;99.90;;;;;;4989801;28;20524;-79
2023/03/20 09:54:26;;;;;;;10.50;4.57;;;11.50;99.90;;;;;;5010664;28;20493;-83
2023/03/20 09:56:56;;;;;;;12.20;5.23;;;11.30;99.90;;;;;;5012597;28;20508;-84
2023/03/20 09:59:25;;;;;;;6.47;4.73;;;11.50;99.90;;;;;;5032136;28;20514;-84
2023/03/20 10:01:55;;;;;;;9.60;4.40;;;11.30;99.90;;;;;;4997134;28;20454;-81
2023/03/20 10:04:25;;;;;;;13.03;4.20;;;11.30;99.90;;;;;;4999925;28;20512;-80
2023/03/20 10:06:52;;;;;;;9.03;4.00;;;11.40;99.90;;;;;;5011760;28;20499;-82
2023/03/20 10:09:23;;;;;;;8.57;4.20;;;11.30;99.90;;;;;;5019866;28;20496;-80
2023/03/20 10:12:09;;;;;;;9.70;4.50;;;11.30;99.90;;;;;;5016047;28;20563;-81
2023/03/20 10:14:48;;;;;;;12.90;5.17;;;11.50;99.90;;;;;;4994895;28;20478;-82
2023/03/20 10:17:28;;;;;;;8.73;4.23;;;11.60;99.90;;;;;;5001355;28;20454;-82
2023/03/20 10:19:58;;;;;;;7.17;3.50;;;11.80;99.90;;;;;;5001830;28;20454;-79
2023/03/20 10:22:29;;;;;;;13.00;3.40;;;11.80;99.90;;;;;;5012406;28;20886;-83
2023/03/20 10:25:06;;;;;;;6.53;3.07;;;11.60;99.90;;;;;;5001646;28;20493;-83
2023/03/20 10:27:38;;;;;;;5.80;2.70;;;11.70;99.90;;;;;;5006879;28;20594;-81
2023/03/20 10:30:24;;;;;;;4.90;3.00;;;11.60;99.90;;;;;;5018030;28;20837;-83
2023/03/20 10:33:00;;;;;;;5.53;1.80;;;11.60;99.90;;;;;;5013168;28;20483;-81
2023/03/20 10:35:33;;;;;;;6.73;2.47;;;11.70;99.90;;;;;;5014666;28;20472;-82
2023/03/20 10:38:11;;;;;;;5.60;2.03;;;11.90;99.90;;;;;;4998944;28;20527;-81
2023/03/20 10:40:41;;;;;;;4.87;1.83;;;12.10;99.90;;;;;;4998843;28;20830;-80
2023/03/20 10:43:15;;;;;;;6.63;2.33;;;11.90;99.90;;;;;;4997320;28;20534;-81
2023/03/20 10:45:46;;;;;;;5.33;2.40;;;12.10;99.90;;;;;;4982918;28;20546;-81
2023/03/20 10:48:21;;;;;;;3.87;1.67;;;12.00;99.90;;;;;;5012427;28;20461;-83
2023/03/20 10:50:51;;;;;;;5.10;2.27;;;11.50;99.90;;;;;;4996884;28;20454;-80
2023/03/20 10:55:46;;;;;;;4.00;2.07;;;11.70;99.90;;;;;;5013731;23;20585;-83
2023/03/20 10:58:18;;;;;;;3.60;2.53;;;12.00;99.90;;;;;;4997622;28;20211;-85
2023/03/20 11:00:44;;;;;;;6.23;2.03;;;12.20;99.90;;;;;;4996981;28;20449;-85
2023/03/20 11:03:21;;;;;;;6.40;1.97;;;12.50;99.90;;;;;;4996654;28;20537;-84
2023/03/20 11:05:51;;;;;;;3.33;1.60;;;12.70;99.90;;;;;;4991557;28;20436;-85
2023/03/20 11:08:23;;;;;;;4.73;1.50;;;12.60;99.90;;;;;;4980906;28;20482;-84
2023/03/20 11:10:59;;;;;;;7.40;2.77;;;12.10;99.90;;;;;;4975895;28;20456;-85
2023/03/20 11:13:30;;;;;;;5.80;1.50;;;12.20;99.90;;;;;;4980149;28;20959;-85
2023/03/20 11:16:07;;;;;;;4.60;2.33;;;12.00;99.90;;;;;;4997856;28;20837;-83
2023/03/20 11:18:35;;;;;;;5.57;1.93;;;12.30;99.90;;;;;;4986903;28;20460;-83
2023/03/20 11:21:02;;;;;;;7.87;2.40;;;12.60;99.90;;;;;;4982939;28;20524;-84
2023/03/20 11:23:32;;;;;;;8.33;2.30;;;13.00;99.90;;;;;;4982106;28;20841;-84
2023/03/20 11:26:03;;;;;;;7.17;2.93;;;13.20;99.90;;;;;;4980622;28;20830;-83
2023/03/20 11:28:33;;;;;;;9.70;2.67;;;13.30;99.90;;;;;;4997910;28;20859;-83
2023/03/20 11:31:04;;;;;;;5.53;2.40;;;13.30;99.90;;;;;;4998897;28;20533;-83
2023/03/20 11:33:36;;;;;;;5.97;2.27;;;13.40;99.90;;;;;;4998329;28;20467;-81
2023/03/20 11:36:09;;;;;;;7.73;3.13;;;13.40;99.90;;;;;;4996415;28;20465;-83
2023/03/20 11:38:43;;;;;;;11.27;2.30;;;13.20;99.90;;;;;;4995740;28;20467;-84
2023/03/20 11:41:19;;;;;;;3.40;2.17;;;13.00;99.90;;;;;;4992048;28;20484;-83
2023/03/20 11:43:45;;;;;;;5.40;2.57;;;12.60;99.90;;;;;;4982252;28;20464;-83
2023/03/20 11:46:13;;;;;;;4.10;2.50;;;12.70;99.90;;;;;;4982048;28;20895;-84
2023/03/20 11:48:43;;;;;;;12.00;2.77;;;12.50;99.90;;;;;;4979640;28;20975;-82
2023/03/20 11:51:14;;;;;;;3.40;1.63;;;12.10;99.90;;;;;;4984101;28;20458;-82
2023/03/20 11:53:52;;;;;;;5.17;2.20;;;12.20;99.90;;;;;;4994950;28;20497;-83
2023/03/20 11:56:24;;;;;;;5.10;2.30;;;12.40;99.90;;;;;;4996377;28;20455;-84
2023/03/20 11:58:57;;;;;;;5.87;2.43;;;12.50;99.90;;;;;;4995675;28;20465;-81
2023/03/20 12:01:26;;;;;;;7.90;3.00;;;12.60;99.90;;;;;;4994730;28;20802;-82
2023/03/20 12:04:01;;;;;;;5.73;2.10;;;12.50;99.90;;;;;;4993884;28;20519;-84
2023/03/20 12:06:41;;;;;;;5.47;1.83;;;12.70;99.90;;;;;;4998710;28;21081;-82
2023/03/20 12:09:15;;;;;;;8.10;2.47;;;12.80;99.90;;;;;;4996578;28;20445;-84
2023/03/20 12:11:48;;;;;;;5.90;1.80;;;12.80;99.90;;;;;;4978048;28;21095;-83
2023/03/20 12:14:22;;;;;;;6.17;1.70;;;12.70;99.90;;;;;;4990929;28;20483;-82
2023/03/20 12:16:52;;;;;;;3.30;1.90;;;12.30;99.90;;;;;;4991702;28;20467;-81
2023/03/20 12:19:25;;;;;;;4.97;2.40;;;12.30;99.90;;;;;;4981950;28;20451;-81
2023/03/20 12:22:00;;;;;;;9.47;2.20;;;12.20;99.90;;;;;;4996377;28;20545;-83
2023/03/20 12:24:33;;;;;;;5.50;1.90;;;12.00;99.90;;;;;;4994014;28;20552;-82
2023/03/20 12:27:15;;;;;;;7.27;1.90;;;11.60;99.90;;;;;;4996807;28;20490;-81
2023/03/20 12:29:47;;;;;;;5.17;1.93;;;11.50;99.90;;;;;;4980401;28;20447;-82
2023/03/20 12:32:20;;;;;;;8.53;2.87;;;11.50;99.90;;;;;;4996994;28;20894;-81
2023/03/20 12:34:50;;;;;;;5.93;2.97;;;11.40;99.90;;;;;;4984004;28;20481;-81
2023/03/20 12:37:18;;;;;;;3.60;2.20;;;11.50;99.90;;;;;;4982677;28;20458;-82
2023/03/20 12:39:49;;;;;;;7.40;2.60;;;11.50;99.90;;;;;;4995873;28;20454;-82
2023/03/20 12:42:33;;;;;;;6.63;3.43;;;11.30;99.90;;;;;;4997351;28;20464;-81
2023/03/20 12:45:08;;;;;;;5.90;2.30;;;11.00;99.90;;;;;;4991079;28;21085;-82
2023/03/20 12:47:54;;;;;;;6.33;2.40;;;10.90;99.90;;;;;;4987565;28;20488;-81
2023/03/20 12:50:28;;;;;;;6.93;2.70;;;11.10;99.90;;;;;;4948856;28;20509;-80
2023/03/20 12:53:06;;;;;;;8.03;3.00;;;11.10;99.90;;;;;;4989755;28;20459;-81
2023/03/20 12:55:44;;;;;;;8.57;2.50;;;11.00;99.90;;;;;;4998848;28;20470;-82
2023/03/20 12:58:22;;;;;;;4.40;2.30;;;11.40;99.90;;;;;;4990916;28;21063;-80
2023/03/20 13:00:59;;;;;;;6.83;2.50;;;11.70;99.90;;;;;;4985202;28;20955;-81